createdAt,value
2019-04-14T00:00:44.844Z,99.90
2019-04-14T00:03:17.816Z,99.90
2019-04-14T00:05:47.941Z,99.90
2019-04-14T00:08:17.666Z,99.90
2019-04-14T00:10:46.467Z,99.90
2019-04-14T00:13:15.302Z,99.90
2019-04-14T00:15:46.831Z,99.90
2019-04-14T00:18:14.337Z,99.90
2019-04-14T00:20:42.904Z,99.90
2019-04-14T00:23:11.428Z,99.90
2019-04-14T00:25:41.168Z,99.90
2019-04-14T00:28:09.797Z,99.90
2019-04-14T00:30:38.419Z,99.90
2019-04-14T00:33:08.519Z,99.90
2019-04-14T00:35:53.980Z,99.90
2019-04-14T00:38:30.240Z,99.90
2019-04-14T00:41:02.983Z,99.90
2019-04-14T00:43:39.589Z,99.90
2019-04-14T00:46:23.210Z,99.90
2019-04-14T00:48:51.855Z,99.90
2019-04-14T00:51:20.397Z,99.90
2019-04-14T00:53:49.175Z,99.90
2019-04-14T00:56:17.847Z,99.90
2019-04-14T00:58:47.437Z,99.90
2019-04-14T01:01:16.151Z,99.90
2019-04-14T01:03:45.671Z,99.90
2019-04-14T01:06:14.571Z,99.90
2019-04-14T01:08:43.055Z,99.90
2019-04-14T01:11:11.803Z,99.90
2019-04-14T01:13:40.439Z,99.90
2019-04-14T01:16:15.392Z,99.90
2019-04-14T01:18:39.453Z,99.90
2019-04-14T01:21:09.511Z,99.90
2019-04-14T01:23:39.176Z,99.90
2019-04-14T01:26:07.855Z,99.90
2019-04-14T01:28:37.479Z,99.90
2019-04-14T01:31:06.057Z,99.90
2019-04-14T01:33:35.596Z,99.90
2019-04-14T01:36:04.578Z,99.90
2019-04-14T01:38:34.354Z,99.90
2019-04-14T01:41:04.144Z,99.90
2019-04-14T01:43:34.097Z,99.90
2019-04-14T01:46:13.092Z,99.90
2019-04-14T01:48:32.915Z,99.90
2019-04-14T01:51:20.272Z,99.90
2019-04-14T01:53:57.396Z,99.90
2019-04-14T01:56:44.980Z,99.90
2019-04-14T01:59:17.967Z,99.90
2019-04-14T02:01:48.069Z,99.90
2019-04-14T02:04:16.688Z,99.90
2019-04-14T02:06:46.250Z,99.90
2019-04-14T02:09:16.144Z,99.90
2019-04-14T02:11:46.539Z,99.90
2019-04-14T02:14:15.147Z,99.90
2019-04-14T02:16:49.824Z,99.90
2019-04-14T02:19:13.804Z,99.90
2019-04-14T02:21:43.472Z,99.90
2019-04-14T02:24:13.434Z,99.90
2019-04-14T02:26:41.992Z,99.90
2019-04-14T02:29:10.663Z,99.90
2019-04-14T02:31:59.965Z,99.90
2019-04-14T02:37:10.744Z,99.90
2019-04-14T02:39:42.475Z,99.90
2019-04-14T02:44:37.996Z,99.90
2019-04-14T02:47:27.133Z,99.90
2019-04-14T02:49:44.158Z,99.90
2019-04-14T02:52:04.990Z,99.90
2019-04-14T02:54:43.555Z,99.90
2019-04-14T02:57:10.416Z,99.90
2019-04-14T03:02:22.956Z,99.90
2019-04-14T03:04:45.472Z,99.90
2019-04-14T03:12:09.450Z,99.90
2019-04-14T03:14:42.079Z,99.90
2019-04-14T03:17:29.145Z,99.90
2019-04-14T03:20:14.028Z,99.90
2019-04-14T03:22:43.793Z,99.90
2019-04-14T03:25:26.376Z,99.90
2019-04-14T03:28:12.176Z,99.90
2019-04-14T03:31:04.099Z,99.90
2019-04-14T03:38:18.366Z,99.90
2019-04-14T03:43:09.947Z,99.90
2019-04-14T03:48:45.036Z,99.90
2019-04-14T03:50:37.817Z,99.90
2019-04-14T03:53:17.528Z,99.90
2019-04-14T03:55:49.311Z,99.90
2019-04-14T03:58:14.331Z,99.90
2019-04-14T04:00:44.353Z,99.90
2019-04-14T04:03:12.943Z,99.90
2019-04-14T04:05:41.470Z,99.90
2019-04-14T04:08:09.952Z,99.90
2019-04-14T04:10:44.299Z,99.90
2019-04-14T04:13:12.903Z,99.90
2019-04-14T04:15:41.843Z,99.90
2019-04-14T04:18:21.919Z,99.90
2019-04-14T04:20:52.467Z,99.90
2019-04-14T04:23:33.485Z,99.90
2019-04-14T04:26:21.199Z,99.90
2019-04-14T04:29:07.676Z,99.90
2019-04-14T04:31:44.035Z,99.90
2019-04-14T04:34:29.593Z,99.90
2019-04-14T04:37:06.098Z,99.90
2019-04-14T04:39:37.995Z,99.90
2019-04-14T04:42:07.024Z,99.90
2019-04-14T04:44:35.686Z,99.90
2019-04-14T04:47:05.537Z,99.90
2019-04-14T04:49:34.341Z,99.90
2019-04-14T04:52:03.994Z,99.90
2019-04-14T04:54:32.776Z,99.90
2019-04-14T04:57:02.470Z,99.90
2019-04-14T04:59:32.105Z,99.90
2019-04-14T05:02:00.689Z,99.90
2019-04-14T05:04:29.237Z,99.90
2019-04-14T05:07:01.313Z,99.90
2019-04-14T05:09:38.940Z,99.90
2019-04-14T05:12:13.245Z,99.90
2019-04-14T05:15:01.625Z,99.90
2019-04-14T05:17:34.743Z,99.90
2019-04-14T05:20:05.118Z,99.90
2019-04-14T05:22:33.823Z,99.90
2019-04-14T05:25:03.516Z,99.90
2019-04-14T05:27:32.108Z,99.90
2019-04-14T05:30:00.686Z,99.90
2019-04-14T05:32:30.525Z,99.90
2019-04-14T05:34:59.399Z,99.90
2019-04-14T05:37:28.966Z,99.90
2019-04-14T05:39:57.683Z,99.90
2019-04-14T05:42:27.492Z,99.90
2019-04-14T05:44:56.425Z,99.90
2019-04-14T05:47:26.188Z,99.90
2019-04-14T05:49:57.488Z,99.90
2019-04-14T05:52:25.375Z,99.90
2019-04-14T05:54:53.930Z,99.90
2019-04-14T05:57:22.392Z,99.90
2019-04-14T05:59:50.944Z,99.90
2019-04-14T06:02:20.223Z,99.90
2019-04-14T06:04:48.887Z,99.90
2019-04-14T06:07:17.339Z,99.90
2019-04-14T06:09:45.828Z,99.90
2019-04-14T06:12:14.361Z,99.90
2019-04-14T06:14:43.284Z,99.90
2019-04-14T06:17:11.747Z,99.90
2019-04-14T06:19:40.740Z,99.90
2019-04-14T06:22:09.331Z,99.90
2019-04-14T06:24:37.889Z,99.90
2019-04-14T06:27:06.715Z,99.90
2019-04-14T06:29:35.500Z,99.90
2019-04-14T06:32:11.719Z,99.90
2019-04-14T06:34:48.030Z,99.90
2019-04-14T06:37:33.287Z,99.90
2019-04-14T06:40:03.421Z,99.90
2019-04-14T06:42:32.323Z,99.90
2019-04-14T06:45:00.879Z,99.90
2019-04-14T06:47:29.408Z,99.90
2019-04-14T06:49:57.890Z,99.90
2019-04-14T06:52:26.423Z,99.90
2019-04-14T06:54:54.907Z,99.90
2019-04-14T06:57:23.363Z,99.90
2019-04-14T06:59:52.199Z,99.90
2019-04-14T07:02:20.661Z,99.90
2019-04-14T07:04:49.574Z,99.90
2019-04-14T07:07:18.044Z,99.90
2019-04-14T07:09:46.944Z,99.90
2019-04-14T07:12:15.465Z,99.90
2019-04-14T07:14:44.435Z,99.90
2019-04-14T07:17:12.995Z,99.90
2019-04-14T07:19:41.792Z,99.90
2019-04-14T07:22:10.347Z,99.90
2019-04-14T07:24:38.803Z,99.90
2019-04-14T07:27:07.287Z,99.90
2019-04-14T07:29:37.388Z,99.90
2019-04-14T07:32:16.672Z,99.90
2019-04-14T07:35:02.036Z,99.90
2019-04-14T07:37:32.235Z,99.90
2019-04-14T07:40:02.404Z,99.90
2019-04-14T07:42:32.599Z,99.90
2019-04-14T07:45:02.967Z,99.90
2019-04-14T07:47:33.159Z,99.90
2019-04-14T07:50:18.467Z,99.90
2019-04-14T07:52:48.663Z,99.90
2019-04-14T07:55:18.759Z,99.90
2019-04-14T07:57:54.935Z,99.90
2019-04-14T08:00:43.815Z,99.90
2019-04-14T08:03:30.502Z,99.90
2019-04-14T08:05:59.036Z,99.90
2019-04-14T08:08:27.593Z,99.90
2019-04-14T08:10:56.195Z,99.90
2019-04-14T08:13:25.065Z,99.90
2019-04-14T08:15:53.596Z,99.90
2019-04-14T08:18:22.435Z,99.90
2019-04-14T08:20:50.968Z,99.90
2019-04-14T08:23:19.526Z,99.90
2019-04-14T08:25:47.988Z,99.90
2019-04-14T08:28:16.872Z,99.90
2019-04-14T08:30:45.327Z,99.90
2019-04-14T08:33:13.816Z,99.90
2019-04-14T08:35:42.725Z,99.90
2019-04-14T08:38:11.347Z,99.90
2019-04-14T08:40:39.804Z,99.90
2019-04-14T08:43:10.000Z,98.80
2019-04-14T08:45:40.172Z,98.40
2019-04-14T08:48:25.496Z,98.10
2019-04-14T08:51:01.672Z,97.80
2019-04-14T08:53:31.874Z,97.60
2019-04-14T08:56:20.417Z,96.30
2019-04-14T08:59:02.347Z,94.60
2019-04-14T09:01:41.780Z,94.30
2019-04-14T09:04:12.208Z,95.10
2019-04-14T09:06:48.420Z,93.50
2019-04-14T09:09:24.455Z,93.60
2019-04-14T09:11:57.076Z,94.70
2019-04-14T09:14:25.695Z,94.80
2019-04-14T09:16:54.143Z,94.80
2019-04-14T09:19:22.967Z,94.80
2019-04-14T09:21:51.849Z,95.80
2019-04-14T09:24:20.480Z,95.20
2019-04-14T09:26:49.323Z,96.30
2019-04-14T09:29:17.807Z,94.80
2019-04-14T09:31:46.273Z,94.30
2019-04-14T09:34:14.831Z,96.40
2019-04-14T09:36:43.291Z,94.90
2019-04-14T09:39:11.774Z,94.60
2019-04-14T09:41:40.870Z,93.90
2019-04-14T09:44:09.356Z,93.30
2019-04-14T09:46:38.199Z,94.20
2019-04-14T09:49:06.691Z,91.40
2019-04-14T09:51:35.572Z,90.90
2019-04-14T09:54:04.371Z,91.20
2019-04-14T09:56:32.828Z,87.80
2019-04-14T09:59:01.326Z,84.90
2019-04-14T10:01:30.216Z,80.50
2019-04-14T10:03:58.675Z,75.50
2019-04-14T10:06:27.231Z,71.80
2019-04-14T10:08:55.768Z,71.60
2019-04-14T10:11:24.860Z,67.30
2019-04-14T10:13:53.655Z,65.60
2019-04-14T10:16:22.204Z,62.10
2019-04-14T10:18:50.669Z,56.90
2019-04-14T10:21:19.228Z,55.50
2019-04-14T10:23:47.765Z,55.40
2019-04-14T10:26:16.256Z,53.50
2019-04-14T10:28:45.151Z,50.90
2019-04-14T10:31:13.712Z,51.40
2019-04-14T10:33:42.179Z,51.60
2019-04-14T10:36:11.043Z,53.30
2019-04-14T10:38:39.535Z,53.70
2019-04-14T10:41:08.023Z,52.80
2019-04-14T10:43:36.560Z,51.20
2019-04-14T10:46:05.188Z,50.50
2019-04-14T10:48:33.648Z,48.00
2019-04-14T10:51:02.137Z,48.90
2019-04-14T10:53:31.012Z,48.90
2019-04-14T10:55:59.501Z,50.00
2019-04-14T10:58:28.036Z,48.00
2019-04-14T11:00:56.524Z,48.60
2019-04-14T11:03:24.984Z,47.50
2019-04-14T11:05:58.055Z,47.50
2019-04-14T11:08:26.535Z,46.80
2019-04-14T11:10:55.072Z,45.90
2019-04-14T11:13:23.628Z,47.50
2019-04-14T11:15:52.157Z,48.50
2019-04-14T11:18:20.715Z,48.30
2019-04-14T11:20:49.175Z,47.10
2019-04-14T11:23:17.663Z,46.80
2019-04-14T11:25:46.468Z,47.20
2019-04-14T11:28:14.962Z,47.60
2019-04-14T11:30:43.700Z,48.40
2019-04-14T11:33:13.899Z,48.50
2019-04-14T11:35:43.996Z,49.30
2019-04-14T11:38:14.207Z,49.70
2019-04-14T11:40:47.155Z,49.60
2019-04-14T11:43:15.660Z,50.50
2019-04-14T11:45:44.517Z,51.30
2019-04-14T11:48:13.215Z,52.20
2019-04-14T11:50:41.675Z,52.80
2019-04-14T11:53:10.364Z,53.10
2019-04-14T11:55:38.831Z,52.70
2019-04-14T11:58:07.383Z,52.50
2019-04-14T12:00:54.083Z,54.40
2019-04-14T12:03:26.744Z,52.90
2019-04-14T12:06:13.468Z,51.40
2019-04-14T12:08:46.688Z,52.20
2019-04-14T12:11:15.556Z,52.50
2019-04-14T12:13:44.040Z,53.40
2019-04-14T12:16:12.567Z,53.80
2019-04-14T12:18:41.133Z,54.40
2019-04-14T12:21:09.674Z,55.70
2019-04-14T12:23:38.227Z,55.80
2019-04-14T12:26:06.751Z,56.60
2019-04-14T12:28:36.123Z,56.70
2019-04-14T12:31:06.498Z,58.20
2019-04-14T12:33:35.080Z,59.00
2019-04-14T12:36:05.243Z,59.50
2019-04-14T12:38:33.787Z,59.60
2019-04-14T12:41:02.974Z,58.60
2019-04-14T12:43:37.262Z,59.10
2019-04-14T12:46:24.179Z,59.50
2019-04-14T12:48:54.283Z,59.10
2019-04-14T12:51:27.528Z,58.80
2019-04-14T12:53:56.063Z,59.50
2019-04-14T12:56:26.187Z,59.50
2019-04-14T12:59:02.356Z,59.40
2019-04-14T13:01:47.936Z,59.20
2019-04-14T13:04:16.400Z,59.30
2019-04-14T13:06:44.957Z,59.00
2019-04-14T13:09:14.657Z,59.60
2019-04-14T13:11:43.423Z,58.70
2019-04-14T13:14:12.032Z,58.30
2019-04-14T13:16:41.095Z,58.40
2019-04-14T13:19:09.555Z,58.30
2019-04-14T13:21:40.419Z,58.50
2019-04-14T13:24:08.236Z,58.90
2019-04-14T13:26:36.801Z,58.60
2019-04-14T13:29:05.426Z,59.10
2019-04-14T13:31:34.227Z,59.80
2019-04-14T13:34:03.024Z,60.40
2019-04-14T13:36:31.563Z,60.80
2019-04-14T13:39:00.128Z,61.00
2019-04-14T13:41:28.666Z,60.40
2019-04-14T13:43:57.227Z,61.60
2019-04-14T13:46:25.692Z,61.70
2019-04-14T13:48:54.527Z,62.70
2019-04-14T13:51:22.994Z,63.40
2019-04-14T13:53:51.550Z,63.80
2019-04-14T13:56:20.022Z,64.30
2019-04-14T13:58:48.644Z,65.50
2019-04-14T14:01:17.283Z,65.40
2019-04-14T14:03:45.843Z,66.70
2019-04-14T14:06:14.443Z,67.00
2019-04-14T14:08:43.300Z,67.50
2019-04-14T14:11:22.365Z,68.70
2019-04-14T14:13:55.470Z,68.70
2019-04-14T14:16:34.641Z,69.20
2019-04-14T14:19:11.007Z,70.40
2019-04-14T14:21:43.943Z,70.80
2019-04-14T14:24:30.509Z,71.40
2019-04-14T14:27:00.684Z,71.90
2019-04-14T14:29:29.330Z,73.50
2019-04-14T14:31:58.322Z,75.70
2019-04-14T14:34:26.936Z,76.30
2019-04-14T14:36:55.395Z,76.90
2019-04-14T14:39:24.256Z,77.80
2019-04-14T14:41:52.715Z,79.00
2019-04-14T14:44:22.979Z,79.50
2019-04-14T14:47:05.184Z,80.60
2019-04-14T14:49:47.372Z,82.30
2019-04-14T14:52:17.545Z,83.00
2019-04-14T14:54:46.102Z,83.90
2019-04-14T14:57:14.695Z,85.10
2019-04-14T14:59:43.349Z,85.10
2019-04-14T15:02:11.935Z,87.40
2019-04-14T15:04:40.490Z,87.80
2019-04-14T15:07:09.020Z,89.10
2019-04-14T15:09:37.784Z,90.00
2019-04-14T15:12:06.239Z,90.50
2019-04-14T15:14:34.957Z,91.10
2019-04-14T15:17:03.653Z,91.70
2019-04-14T15:19:32.528Z,92.80
2019-04-14T15:22:01.020Z,94.00
2019-04-14T15:24:29.615Z,94.40
2019-04-14T15:26:58.098Z,94.20
2019-04-14T15:29:26.695Z,94.80
2019-04-14T15:31:55.175Z,95.30
2019-04-14T15:34:23.637Z,95.50
2019-04-14T15:36:52.191Z,95.80
2019-04-14T15:39:20.714Z,96.20
2019-04-14T15:41:49.571Z,96.90
2019-04-14T15:44:18.029Z,97.30
2019-04-14T15:46:46.579Z,97.40
2019-04-14T15:49:15.139Z,98.30
2019-04-14T15:51:43.951Z,98.70
2019-04-14T15:54:12.401Z,98.50
2019-04-14T15:56:45.023Z,99.40
2019-04-14T15:59:15.135Z,99.50
2019-04-14T16:01:45.247Z,99.90
2019-04-14T16:04:24.644Z,99.90
2019-04-14T16:06:54.755Z,99.90
2019-04-14T16:09:24.861Z,99.90
2019-04-14T16:12:00.838Z,99.90
2019-04-14T16:14:46.524Z,99.90
2019-04-14T16:17:17.080Z,99.90
2019-04-14T16:19:50.376Z,99.90
2019-04-14T16:22:18.923Z,99.90
2019-04-14T16:24:47.447Z,99.90
2019-04-14T16:27:33.917Z,99.90
2019-04-14T16:30:25.785Z,99.90
2019-04-14T16:33:01.901Z,99.90
2019-04-14T16:35:37.803Z,99.90
2019-04-14T16:38:06.651Z,99.90
2019-04-14T16:40:36.309Z,99.90
2019-04-14T16:43:05.232Z,99.90
2019-04-14T16:45:33.759Z,99.90
2019-04-14T16:48:02.212Z,99.90
2019-04-14T16:50:30.759Z,99.90
2019-04-14T16:53:03.394Z,99.90
2019-04-14T16:55:36.881Z,99.90
2019-04-14T16:58:22.995Z,99.90
2019-04-14T17:01:02.343Z,99.90
2019-04-14T17:03:30.791Z,99.90
2019-04-14T17:05:59.263Z,99.90
2019-04-14T17:08:27.710Z,99.90
2019-04-14T17:10:56.264Z,99.90
2019-04-14T17:13:26.351Z,99.90
2019-04-14T17:15:59.635Z,99.90
2019-04-14T17:18:45.855Z,99.90
2019-04-14T17:21:32.551Z,99.90
2019-04-14T17:24:18.983Z,99.90
2019-04-14T17:26:58.083Z,99.90
2019-04-14T17:29:28.179Z,99.90
2019-04-14T17:31:58.430Z,99.90
2019-04-14T17:34:31.260Z,99.90
2019-04-14T17:37:07.667Z,99.90
2019-04-14T17:39:46.807Z,99.90
2019-04-14T17:42:25.820Z,99.90
2019-04-14T17:44:58.836Z,99.90
2019-04-14T17:47:29.256Z,99.90
2019-04-14T17:50:02.111Z,99.90
2019-04-14T17:52:35.229Z,99.90
2019-04-14T17:55:20.031Z,99.90
2019-04-14T17:57:56.517Z,99.90
2019-04-14T18:00:26.988Z,99.90
2019-04-14T18:03:03.108Z,99.90
2019-04-14T18:05:33.274Z,99.90
2019-04-14T18:08:15.584Z,99.90
2019-04-14T18:10:48.123Z,99.90
2019-04-14T18:13:20.761Z,99.90
2019-04-14T18:16:07.437Z,99.90
2019-04-14T18:18:53.899Z,99.90
2019-04-14T18:21:22.347Z,99.90
2019-04-14T18:23:50.903Z,99.90
2019-04-14T18:26:19.379Z,99.90
2019-04-14T18:28:49.472Z,99.90
2019-04-14T18:31:31.553Z,99.90
2019-04-14T18:34:02.028Z,99.90
2019-04-14T18:36:41.359Z,99.90
2019-04-14T18:39:27.768Z,99.90
2019-04-14T18:42:03.669Z,99.90
2019-04-14T18:44:48.880Z,99.90
2019-04-14T18:47:21.840Z,99.90
2019-04-14T18:49:54.675Z,99.90
2019-04-14T18:52:40.701Z,99.90
2019-04-14T18:55:16.479Z,99.90
2019-04-14T18:57:49.496Z,99.90
2019-04-14T19:00:19.585Z,99.90
2019-04-14T19:02:48.112Z,99.90
2019-04-14T19:05:16.888Z,99.90
2019-04-14T19:07:45.367Z,99.90
2019-04-14T19:10:13.959Z,99.90
2019-04-14T19:12:44.047Z,99.90
2019-04-14T19:15:14.804Z,99.90
2019-04-14T19:17:54.155Z,99.90
2019-04-14T19:20:22.602Z,99.90
2019-04-14T19:22:51.131Z,99.90
2019-04-14T19:25:19.612Z,99.90
2019-04-14T19:27:48.232Z,99.90
2019-04-14T19:30:16.816Z,99.90
2019-04-14T19:32:45.287Z,99.90
2019-04-14T19:35:13.735Z,99.90
2019-04-14T19:37:42.507Z,99.90
2019-04-14T19:40:11.707Z,99.90
2019-04-14T19:42:40.302Z,99.90
2019-04-14T19:45:08.919Z,99.90
2019-04-14T19:47:37.379Z,99.90
2019-04-14T19:50:06.492Z,99.90
2019-04-14T19:52:34.956Z,99.90
2019-04-14T19:55:04.267Z,99.90
2019-04-14T19:57:32.723Z,99.90
2019-04-14T20:00:01.195Z,99.90
2019-04-14T20:02:29.657Z,99.90
2019-04-14T20:04:58.204Z,99.90
2019-04-14T20:07:26.667Z,99.90
2019-04-14T20:09:55.143Z,99.90
2019-04-14T20:12:23.591Z,99.90
2019-04-14T20:14:52.206Z,99.90
2019-04-14T20:17:25.385Z,99.90
2019-04-14T20:20:07.748Z,99.90
2019-04-14T20:22:53.120Z,99.90
2019-04-14T20:25:33.036Z,99.90
2019-04-14T20:27:55.279Z,99.90
2019-04-14T20:30:25.615Z,99.90
2019-04-14T20:32:54.071Z,99.90
2019-04-14T20:35:22.691Z,99.90
2019-04-14T20:37:51.223Z,99.90
2019-04-14T20:40:19.843Z,99.90
2019-04-14T20:42:48.300Z,99.90
2019-04-14T20:45:18.464Z,99.90
2019-04-14T20:47:47.000Z,99.90
2019-04-14T20:50:16.125Z,99.90
2019-04-14T20:52:44.723Z,99.90
2019-04-14T20:55:13.416Z,99.90
2019-04-14T20:57:42.164Z,99.90
2019-04-14T21:00:11.160Z,99.90
2019-04-14T21:02:41.283Z,99.90
2019-04-14T21:05:11.595Z,99.90
2019-04-14T21:07:58.143Z,99.90
2019-04-14T21:10:28.238Z,99.90
2019-04-14T21:12:58.361Z,99.90
2019-04-14T21:15:28.532Z,99.90
2019-04-14T21:18:10.664Z,99.90
2019-04-14T21:20:43.484Z,99.90
2019-04-14T21:23:30.038Z,99.90
2019-04-14T21:26:06.210Z,99.90
2019-04-14T21:28:36.734Z,99.90
2019-04-14T21:31:10.087Z,99.90
2019-04-14T21:33:58.074Z,99.90
2019-04-14T21:36:31.082Z,99.90
2019-04-14T21:39:06.907Z,99.90
2019-04-14T21:41:36.335Z,99.90
2019-04-14T21:44:05.056Z,99.90
2019-04-14T21:46:33.579Z,99.90
2019-04-14T21:49:02.099Z,99.90
2019-04-14T21:51:35.248Z,99.90
2019-04-14T21:54:03.716Z,99.90
2019-04-14T21:56:33.910Z,99.90
2019-04-14T21:59:06.715Z,99.90
2019-04-14T22:01:46.656Z,99.90
2019-04-14T22:04:33.384Z,99.90
2019-04-14T22:07:19.596Z,99.90
2019-04-14T22:09:49.396Z,99.90
2019-04-14T22:12:17.926Z,99.90
2019-04-14T22:14:46.771Z,99.90
2019-04-14T22:17:15.668Z,99.90
2019-04-14T22:19:44.123Z,99.90
2019-04-14T22:22:12.612Z,99.90
2019-04-14T22:24:41.426Z,99.90
2019-04-14T22:27:09.961Z,99.90
2019-04-14T22:29:38.797Z,99.90
2019-04-14T22:32:07.784Z,99.90
2019-04-14T22:34:36.268Z,99.90
2019-04-14T22:37:04.799Z,99.90
2019-04-14T22:39:33.287Z,99.90
2019-04-14T22:42:01.744Z,99.90
2019-04-14T22:44:30.223Z,99.90
2019-04-14T22:46:58.759Z,99.90
2019-04-14T22:49:27.210Z,99.90
2019-04-14T22:51:56.044Z,99.90
2019-04-14T22:54:24.650Z,99.90
2019-04-14T22:56:53.199Z,99.90
2019-04-14T22:59:21.649Z,99.90
2019-04-14T23:01:51.843Z,99.90
2019-04-14T23:04:33.903Z,99.90
2019-04-14T23:07:19.351Z,99.90
2019-04-14T23:10:01.578Z,99.90
2019-04-14T23:12:34.718Z,99.90
2019-04-14T23:15:05.811Z,99.90
2019-04-14T23:17:52.463Z,99.90
2019-04-14T23:20:31.435Z,99.90
2019-04-14T23:23:17.464Z,99.90
2019-04-14T23:25:46.083Z,99.90
2019-04-14T23:28:14.540Z,99.90
2019-04-14T23:30:43.235Z,99.90
2019-04-14T23:33:11.943Z,99.90
2019-04-14T23:35:40.503Z,99.90
2019-04-14T23:38:09.263Z,99.90
2019-04-14T23:40:38.055Z,99.90
2019-04-14T23:43:06.687Z,99.90
2019-04-14T23:45:35.143Z,99.90
2019-04-14T23:48:03.762Z,99.90
2019-04-14T23:50:32.217Z,99.90
2019-04-14T23:53:00.701Z,99.90
2019-04-14T23:55:29.159Z,99.90
2019-04-14T23:57:57.640Z,99.90
